sensor_id;sensor_type;location;lat;lon;timestamp;P1;durP1;ratioP1;P2;durP2;ratioP2
41966;SDS011;27656;53.068;8.818;2023-07-20T00:02:02;7.57;;;1.70;;
41966;SDS011;27656;53.068;8.818;2023-07-20T00:04:31;1.50;;;1.40;;
41966;SDS011;27656;53.068;8.818;2023-07-20T00:06:58;2.80;;;1.70;;
41966;SDS011;27656;53.068;8.818;2023-07-20T00:09:27;2.87;;;1.70;;
41966;SDS011;27656;53.068;8.818;2023-07-20T00:11:53;4.23;;;2.00;;
41966;SDS011;27656;53.068;8.818;2023-07-20T00:14:20;3.43;;;1.87;;
41966;SDS011;27656;53.068;8.818;2023-07-20T00:16:46;1.73;;;1.63;;
41966;SDS011;27656;53.068;8.818;2023-07-20T00:19:15;3.47;;;1.63;;
41966;SDS011;27656;53.068;8.818;2023-07-20T00:21:42;3.67;;;1.80;;
41966;SDS011;27656;53.068;8.818;2023-07-20T00:24:09;2.23;;;2.03;;
41966;SDS011;27656;53.068;8.818;2023-07-20T00:26:35;1.77;;;1.63;;
41966;SDS011;27656;53.068;8.818;2023-07-20T00:29:02;3.97;;;1.87;;
41966;SDS011;27656;53.068;8.818;2023-07-20T00:31:29;2.80;;;1.67;;
41966;SDS011;27656;53.068;8.818;2023-07-20T00:33:55;3.63;;;1.93;;
41966;SDS011;27656;53.068;8.818;2023-07-20T00:36:22;2.77;;;1.80;;
41966;SDS011;27656;53.068;8.818;2023-07-20T00:38:49;2.23;;;1.70;;
41966;SDS011;27656;53.068;8.818;2023-07-20T00:41:15;3.90;;;1.87;;
41966;SDS011;27656;53.068;8.818;2023-07-20T00:43:41;3.23;;;1.67;;
41966;SDS011;27656;53.068;8.818;2023-07-20T00:46:08;2.30;;;1.90;;
41966;SDS011;27656;53.068;8.818;2023-07-20T00:48:35;3.77;;;2.00;;
41966;SDS011;27656;53.068;8.818;2023-07-20T00:51:02;3.57;;;1.80;;
41966;SDS011;27656;53.068;8.818;2023-07-20T00:53:29;5.27;;;2.07;;
41966;SDS011;27656;53.068;8.818;2023-07-20T00:55:55;2.47;;;2.23;;
41966;SDS011;27656;53.068;8.818;2023-07-20T00:58:22;3.73;;;2.30;;
41966;SDS011;27656;53.068;8.818;2023-07-20T01:00:48;4.23;;;2.70;;
41966;SDS011;27656;53.068;8.818;2023-07-20T01:03:15;3.10;;;2.40;;
41966;SDS011;27656;53.068;8.818;2023-07-20T01:05:46;3.50;;;2.40;;
41966;SDS011;27656;53.068;8.818;2023-07-20T01:08:21;2.83;;;2.33;;
41966;SDS011;27656;53.068;8.818;2023-07-20T01:10:54;2.57;;;2.37;;
41966;SDS011;27656;53.068;8.818;2023-07-20T01:13:25;4.13;;;2.70;;
41966;SDS011;27656;53.068;8.818;2023-07-20T01:16:01;4.87;;;2.83;;
41966;SDS011;27656;53.068;8.818;2023-07-20T01:18:28;2.67;;;2.37;;
41966;SDS011;27656;53.068;8.818;2023-07-20T01:20:57;2.77;;;1.80;;
41966;SDS011;27656;53.068;8.818;2023-07-20T01:26:20;2.50;;;2.30;;
41966;SDS011;27656;53.068;8.818;2023-07-20T01:28:57;3.13;;;2.13;;
41966;SDS011;27656;53.068;8.818;2023-07-20T01:31:32;3.53;;;2.53;;
41966;SDS011;27656;53.068;8.818;2023-07-20T01:34:00;3.07;;;2.60;;
41966;SDS011;27656;53.068;8.818;2023-07-20T01:36:29;4.33;;;2.83;;
41966;SDS011;27656;53.068;8.818;2023-07-20T01:38:57;2.70;;;2.50;;
41966;SDS011;27656;53.068;8.818;2023-07-20T01:41:23;4.23;;;3.00;;
41966;SDS011;27656;53.068;8.818;2023-07-20T01:43:50;3.00;;;2.40;;
41966;SDS011;27656;53.068;8.818;2023-07-20T01:46:16;2.90;;;2.07;;
41966;SDS011;27656;53.068;8.818;2023-07-20T01:48:43;2.87;;;2.33;;
41966;SDS011;27656;53.068;8.818;2023-07-20T01:51:09;3.03;;;2.53;;
41966;SDS011;27656;53.068;8.818;2023-07-20T01:53:36;3.20;;;2.10;;
41966;SDS011;27656;53.068;8.818;2023-07-20T01:56:03;2.57;;;2.20;;
41966;SDS011;27656;53.068;8.818;2023-07-20T01:58:29;3.60;;;2.60;;
41966;SDS011;27656;53.068;8.818;2023-07-20T02:00:56;2.83;;;2.20;;
41966;SDS011;27656;53.068;8.818;2023-07-20T02:03:22;3.03;;;2.37;;
41966;SDS011;27656;53.068;8.818;2023-07-20T02:05:52;3.13;;;1.80;;
41966;SDS011;27656;53.068;8.818;2023-07-20T02:08:18;1.63;;;1.50;;
41966;SDS011;27656;53.068;8.818;2023-07-20T02:10:46;1.90;;;1.70;;
41966;SDS011;27656;53.068;8.818;2023-07-20T02:13:13;2.33;;;1.57;;
41966;SDS011;27656;53.068;8.818;2023-07-20T02:15:40;2.47;;;1.60;;
41966;SDS011;27656;53.068;8.818;2023-07-20T02:18:06;2.47;;;1.50;;
41966;SDS011;27656;53.068;8.818;2023-07-20T02:20:33;2.60;;;1.90;;
41966;SDS011;27656;53.068;8.818;2023-07-20T02:23:00;2.17;;;1.83;;
41966;SDS011;27656;53.068;8.818;2023-07-20T02:25:26;2.70;;;2.00;;
41966;SDS011;27656;53.068;8.818;2023-07-20T02:27:53;2.83;;;2.30;;
41966;SDS011;27656;53.068;8.818;2023-07-20T02:30:19;2.57;;;1.80;;
41966;SDS011;27656;53.068;8.818;2023-07-20T02:32:46;3.50;;;1.93;;
41966;SDS011;27656;53.068;8.818;2023-07-20T02:35:15;3.03;;;1.60;;
41966;SDS011;27656;53.068;8.818;2023-07-20T02:37:43;4.33;;;1.60;;
41966;SDS011;27656;53.068;8.818;2023-07-20T02:40:10;2.20;;;1.50;;
41966;SDS011;27656;53.068;8.818;2023-07-20T02:42:37;1.97;;;1.77;;
41966;SDS011;27656;53.068;8.818;2023-07-20T02:45:04;1.83;;;1.40;;
41966;SDS011;27656;53.068;8.818;2023-07-20T02:47:31;1.87;;;1.37;;
41966;SDS011;27656;53.068;8.818;2023-07-20T02:49:58;2.07;;;1.57;;
41966;SDS011;27656;53.068;8.818;2023-07-20T02:52:24;4.07;;;1.23;;
41966;SDS011;27656;53.068;8.818;2023-07-20T02:54:51;2.93;;;1.60;;
41966;SDS011;27656;53.068;8.818;2023-07-20T02:57:17;3.50;;;2.03;;
41966;SDS011;27656;53.068;8.818;2023-07-20T02:59:44;2.73;;;2.07;;
41966;SDS011;27656;53.068;8.818;2023-07-20T03:02:10;1.93;;;1.70;;
41966;SDS011;27656;53.068;8.818;2023-07-20T03:04:37;2.20;;;1.83;;
41966;SDS011;27656;53.068;8.818;2023-07-20T03:07:06;4.10;;;1.67;;
41966;SDS011;27656;53.068;8.818;2023-07-20T03:09:33;3.47;;;1.47;;
41966;SDS011;27656;53.068;8.818;2023-07-20T03:12:00;3.30;;;1.50;;
41966;SDS011;27656;53.068;8.818;2023-07-20T03:14:27;2.57;;;1.90;;
41966;SDS011;27656;53.068;8.818;2023-07-20T03:16:54;2.97;;;1.80;;
41966;SDS011;27656;53.068;8.818;2023-07-20T03:19:20;1.73;;;1.63;;
41966;SDS011;27656;53.068;8.818;2023-07-20T03:21:47;2.43;;;1.80;;
41966;SDS011;27656;53.068;8.818;2023-07-20T03:24:14;3.13;;;1.57;;
41966;SDS011;27656;53.068;8.818;2023-07-20T03:26:40;2.70;;;1.80;;
41966;SDS011;27656;53.068;8.818;2023-07-20T03:29:07;2.97;;;1.77;;
41966;SDS011;27656;53.068;8.818;2023-07-20T03:31:34;2.87;;;1.90;;
41966;SDS011;27656;53.068;8.818;2023-07-20T03:34:01;1.97;;;1.70;;
41966;SDS011;27656;53.068;8.818;2023-07-20T03:36:27;3.60;;;2.13;;
41966;SDS011;27656;53.068;8.818;2023-07-20T03:38:54;5.20;;;2.20;;
41966;SDS011;27656;53.068;8.818;2023-07-20T03:41:20;3.50;;;1.90;;
41966;SDS011;27656;53.068;8.818;2023-07-20T03:43:48;3.50;;;2.00;;
41966;SDS011;27656;53.068;8.818;2023-07-20T03:46:15;3.77;;;2.30;;
41966;SDS011;27656;53.068;8.818;2023-07-20T03:48:41;3.67;;;2.57;;
41966;SDS011;27656;53.068;8.818;2023-07-20T03:51:08;2.43;;;1.87;;
41966;SDS011;27656;53.068;8.818;2023-07-20T03:53:34;2.77;;;1.87;;
41966;SDS011;27656;53.068;8.818;2023-07-20T03:56:01;2.43;;;2.23;;
41966;SDS011;27656;53.068;8.818;2023-07-20T03:58:27;2.77;;;2.47;;
41966;SDS011;27656;53.068;8.818;2023-07-20T04:00:56;2.80;;;2.50;;
41966;SDS011;27656;53.068;8.818;2023-07-20T04:03:23;2.80;;;2.30;;
41966;SDS011;27656;53.068;8.818;2023-07-20T04:05:55;2.50;;;2.30;;
41966;SDS011;27656;53.068;8.818;2023-07-20T04:08:25;3.43;;;2.60;;
41966;SDS011;27656;53.068;8.818;2023-07-20T04:10:52;2.97;;;2.50;;
41966;SDS011;27656;53.068;8.818;2023-07-20T04:13:18;4.43;;;2.70;;
41966;SDS011;27656;53.068;8.818;2023-07-20T04:15:45;2.97;;;2.63;;
41966;SDS011;27656;53.068;8.818;2023-07-20T04:18:11;3.33;;;2.67;;
41966;SDS011;27656;53.068;8.818;2023-07-20T04:20:38;3.23;;;2.93;;
41966;SDS011;27656;53.068;8.818;2023-07-20T04:23:04;6.90;;;2.80;;
41966;SDS011;27656;53.068;8.818;2023-07-20T04:25:31;3.00;;;2.70;;
41966;SDS011;27656;53.068;8.818;2023-07-20T04:28:06;3.13;;;2.53;;
41966;SDS011;27656;53.068;8.818;2023-07-20T04:30:36;3.03;;;2.50;;
41966;SDS011;27656;53.068;8.818;2023-07-20T04:33:03;3.63;;;2.60;;
41966;SDS011;27656;53.068;8.818;2023-07-20T04:35:49;2.90;;;2.60;;
41966;SDS011;27656;53.068;8.818;2023-07-20T04:38:17;5.17;;;2.70;;
41966;SDS011;27656;53.068;8.818;2023-07-20T04:40:48;4.13;;;2.77;;
41966;SDS011;27656;53.068;8.818;2023-07-20T04:43:15;5.13;;;2.80;;
41966;SDS011;27656;53.068;8.818;2023-07-20T04:45:42;5.07;;;2.53;;
41966;SDS011;27656;53.068;8.818;2023-07-20T04:48:09;3.87;;;2.07;;
41966;SDS011;27656;53.068;8.818;2023-07-20T04:50:40;6.20;;;2.30;;
41966;SDS011;27656;53.068;8.818;2023-07-20T04:53:13;3.13;;;2.83;;
41966;SDS011;27656;53.068;8.818;2023-07-20T04:55:40;5.17;;;2.70;;
41966;SDS011;27656;53.068;8.818;2023-07-20T04:58:07;2.70;;;2.30;;
41966;SDS011;27656;53.068;8.818;2023-07-20T05:00:33;3.23;;;2.37;;
41966;SDS011;27656;53.068;8.818;2023-07-20T05:03:00;4.17;;;2.90;;
41966;SDS011;27656;53.068;8.818;2023-07-20T05:05:27;4.77;;;2.50;;
41966;SDS011;27656;53.068;8.818;2023-07-20T05:07:53;3.67;;;2.37;;
41966;SDS011;27656;53.068;8.818;2023-07-20T05:10:20;4.07;;;2.90;;
41966;SDS011;27656;53.068;8.818;2023-07-20T05:12:47;3.60;;;2.37;;
41966;SDS011;27656;53.068;8.818;2023-07-20T05:15:13;4.03;;;2.33;;
41966;SDS011;27656;53.068;8.818;2023-07-20T05:17:40;2.83;;;2.50;;
41966;SDS011;27656;53.068;8.818;2023-07-20T05:20:07;3.50;;;2.30;;
41966;SDS011;27656;53.068;8.818;2023-07-20T05:22:36;5.83;;;2.43;;
41966;SDS011;27656;53.068;8.818;2023-07-20T05:25:06;4.97;;;2.63;;
41966;SDS011;27656;53.068;8.818;2023-07-20T05:27:37;3.00;;;2.60;;
41966;SDS011;27656;53.068;8.818;2023-07-20T05:30:05;2.80;;;2.30;;
41966;SDS011;27656;53.068;8.818;2023-07-20T05:32:33;3.60;;;2.47;;
41966;SDS011;27656;53.068;8.818;2023-07-20T05:35:00;3.87;;;2.60;;
41966;SDS011;27656;53.068;8.818;2023-07-20T05:37:26;5.17;;;2.40;;
41966;SDS011;27656;53.068;8.818;2023-07-20T05:39:53;3.90;;;2.33;;
41966;SDS011;27656;53.068;8.818;2023-07-20T05:42:19;2.70;;;2.30;;
41966;SDS011;27656;53.068;8.818;2023-07-20T05:44:46;4.10;;;2.33;;
41966;SDS011;27656;53.068;8.818;2023-07-20T05:47:14;2.47;;;2.10;;
41966;SDS011;27656;53.068;8.818;2023-07-20T05:49:40;5.23;;;2.00;;
41966;SDS011;27656;53.068;8.818;2023-07-20T05:52:07;5.93;;;2.47;;
41966;SDS011;27656;53.068;8.818;2023-07-20T05:54:33;3.77;;;2.27;;
41966;SDS011;27656;53.068;8.818;2023-07-20T05:57:00;3.87;;;1.87;;
41966;SDS011;27656;53.068;8.818;2023-07-20T05:59:27;3.07;;;1.97;;
41966;SDS011;27656;53.068;8.818;2023-07-20T06:01:55;2.77;;;1.80;;
41966;SDS011;27656;53.068;8.818;2023-07-20T06:04:22;2.70;;;1.43;;
41966;SDS011;27656;53.068;8.818;2023-07-20T06:06:49;2.90;;;1.30;;
41966;SDS011;27656;53.068;8.818;2023-07-20T06:09:15;5.53;;;1.40;;
41966;SDS011;27656;53.068;8.818;2023-07-20T06:11:42;4.53;;;1.53;;
41966;SDS011;27656;53.068;8.818;2023-07-20T06:14:08;3.27;;;1.20;;
41966;SDS011;27656;53.068;8.818;2023-07-20T06:16:35;4.77;;;1.10;;
41966;SDS011;27656;53.068;8.818;2023-07-20T06:19:01;2.70;;;1.30;;
41966;SDS011;27656;53.068;8.818;2023-07-20T06:21:28;3.67;;;1.17;;
41966;SDS011;27656;53.068;8.818;2023-07-20T06:23:54;1.87;;;0.93;;
41966;SDS011;27656;53.068;8.818;2023-07-20T06:26:21;1.60;;;1.10;;
41966;SDS011;27656;53.068;8.818;2023-07-20T06:28:48;1.90;;;1.03;;
41966;SDS011;27656;53.068;8.818;2023-07-20T06:31:14;3.43;;;0.93;;
41966;SDS011;27656;53.068;8.818;2023-07-20T06:33:41;6.00;;;1.50;;
41966;SDS011;27656;53.068;8.818;2023-07-20T06:36:07;2.00;;;1.00;;
41966;SDS011;27656;53.068;8.818;2023-07-20T06:38:34;2.63;;;1.23;;
41966;SDS011;27656;53.068;8.818;2023-07-20T06:41:00;4.70;;;1.37;;
41966;SDS011;27656;53.068;8.818;2023-07-20T06:43:30;2.10;;;1.10;;
41966;SDS011;27656;53.068;8.818;2023-07-20T06:45:59;5.60;;;1.20;;
41966;SDS011;27656;53.068;8.818;2023-07-20T06:48:26;2.70;;;1.60;;
41966;SDS011;27656;53.068;8.818;2023-07-20T06:50:52;3.00;;;1.63;;
41966;SDS011;27656;53.068;8.818;2023-07-20T06:53:20;4.13;;;1.60;;
41966;SDS011;27656;53.068;8.818;2023-07-20T06:55:46;3.00;;;1.13;;
41966;SDS011;27656;53.068;8.818;2023-07-20T06:58:17;4.53;;;1.00;;
41966;SDS011;27656;53.068;8.818;2023-07-20T07:00:45;1.50;;;0.80;;
41966;SDS011;27656;53.068;8.818;2023-07-20T07:03:11;1.97;;;0.90;;
41966;SDS011;27656;53.068;8.818;2023-07-20T07:05:38;3.33;;;0.83;;
41966;SDS011;27656;53.068;8.818;2023-07-20T07:08:05;4.20;;;1.40;;
41966;SDS011;27656;53.068;8.818;2023-07-20T07:10:31;2.17;;;1.07;;
41966;SDS011;27656;53.068;8.818;2023-07-20T07:12:58;2.80;;;1.00;;
41966;SDS011;27656;53.068;8.818;2023-07-20T07:15:26;2.30;;;1.13;;
41966;SDS011;27656;53.068;8.818;2023-07-20T07:17:54;4.27;;;0.80;;
41966;SDS011;27656;53.068;8.818;2023-07-20T07:20:21;3.93;;;0.90;;
41966;SDS011;27656;53.068;8.818;2023-07-20T07:22:47;1.50;;;1.00;;
41966;SDS011;27656;53.068;8.818;2023-07-20T07:25:19;2.37;;;0.87;;
41966;SDS011;27656;53.068;8.818;2023-07-20T07:27:49;6.53;;;1.13;;
41966;SDS011;27656;53.068;8.818;2023-07-20T07:30:16;2.83;;;1.30;;
41966;SDS011;27656;53.068;8.818;2023-07-20T07:32:42;3.73;;;1.10;;
41966;SDS011;27656;53.068;8.818;2023-07-20T07:35:09;7.40;;;1.20;;
41966;SDS011;27656;53.068;8.818;2023-07-20T07:37:35;5.63;;;1.37;;
41966;SDS011;27656;53.068;8.818;2023-07-20T07:40:22;7.33;;;1.10;;
41966;SDS011;27656;53.068;8.818;2023-07-20T07:42:49;3.43;;;1.13;;
41966;SDS011;27656;53.068;8.818;2023-07-20T07:45:15;7.87;;;1.40;;
41966;SDS011;27656;53.068;8.818;2023-07-20T07:47:42;5.03;;;1.20;;
41966;SDS011;27656;53.068;8.818;2023-07-20T07:50:09;8.93;;;1.17;;
41966;SDS011;27656;53.068;8.818;2023-07-20T07:52:36;6.93;;;1.07;;
41966;SDS011;27656;53.068;8.818;2023-07-20T07:55:03;3.50;;;1.00;;
41966;SDS011;27656;53.068;8.818;2023-07-20T07:57:30;4.70;;;1.50;;
41966;SDS011;27656;53.068;8.818;2023-07-20T07:59:57;2.13;;;0.73;;
41966;SDS011;27656;53.068;8.818;2023-07-20T08:02:24;3.50;;;1.13;;
41966;SDS011;27656;53.068;8.818;2023-07-20T08:04:53;4.60;;;1.20;;
41966;SDS011;27656;53.068;8.818;2023-07-20T08:07:19;4.97;;;1.17;;
41966;SDS011;27656;53.068;8.818;2023-07-20T08:09:46;1.60;;;1.00;;
41966;SDS011;27656;53.068;8.818;2023-07-20T08:12:13;4.43;;;1.10;;
41966;SDS011;27656;53.068;8.818;2023-07-20T08:14:39;7.10;;;1.00;;
41966;SDS011;27656;53.068;8.818;2023-07-20T08:17:06;7.10;;;1.27;;
41966;SDS011;27656;53.068;8.818;2023-07-20T08:19:33;4.23;;;1.20;;
41966;SDS011;27656;53.068;8.818;2023-07-20T08:21:59;7.03;;;1.30;;
41966;SDS011;27656;53.068;8.818;2023-07-20T08:24:26;2.83;;;1.13;;
41966;SDS011;27656;53.068;8.818;2023-07-20T08:26:52;6.53;;;1.90;;
41966;SDS011;27656;53.068;8.818;2023-07-20T08:29:19;3.60;;;1.20;;
41966;SDS011;27656;53.068;8.818;2023-07-20T08:31:45;5.97;;;1.30;;
41966;SDS011;27656;53.068;8.818;2023-07-20T08:34:12;3.33;;;1.20;;
41966;SDS011;27656;53.068;8.818;2023-07-20T08:36:55;4.90;;;1.60;;
41966;SDS011;27656;53.068;8.818;2023-07-20T08:39:22;5.87;;;1.57;;
41966;SDS011;27656;53.068;8.818;2023-07-20T08:41:49;3.57;;;1.40;;
41966;SDS011;27656;53.068;8.818;2023-07-20T08:44:16;3.70;;;1.27;;
41966;SDS011;27656;53.068;8.818;2023-07-20T08:46:43;4.43;;;1.33;;
41966;SDS011;27656;53.068;8.818;2023-07-20T08:49:10;2.13;;;1.20;;
41966;SDS011;27656;53.068;8.818;2023-07-20T08:51:37;2.80;;;1.40;;
41966;SDS011;27656;53.068;8.818;2023-07-20T08:54:04;4.40;;;1.57;;
41966;SDS011;27656;53.068;8.818;2023-07-20T08:56:32;7.57;;;1.53;;
41966;SDS011;27656;53.068;8.818;2023-07-20T08:59:00;4.17;;;1.53;;
41966;SDS011;27656;53.068;8.818;2023-07-20T09:01:28;6.27;;;1.33;;
41966;SDS011;27656;53.068;8.818;2023-07-20T09:03:56;3.23;;;1.33;;
41966;SDS011;27656;53.068;8.818;2023-07-20T09:06:22;3.17;;;1.30;;
41966;SDS011;27656;53.068;8.818;2023-07-20T09:08:50;4.17;;;1.40;;
41966;SDS011;27656;53.068;8.818;2023-07-20T09:11:16;2.53;;;1.20;;
41966;SDS011;27656;53.068;8.818;2023-07-20T09:13:43;3.43;;;1.40;;
41966;SDS011;27656;53.068;8.818;2023-07-20T09:16:12;4.20;;;1.47;;
41966;SDS011;27656;53.068;8.818;2023-07-20T09:18:40;4.80;;;1.70;;
41966;SDS011;27656;53.068;8.818;2023-07-20T09:21:08;6.70;;;1.40;;
41966;SDS011;27656;53.068;8.818;2023-07-20T09:23:38;3.27;;;1.30;;
41966;SDS011;27656;53.068;8.818;2023-07-20T09:26:11;3.07;;;1.20;;
41966;SDS011;27656;53.068;8.818;2023-07-20T09:28:47;3.37;;;1.20;;
41966;SDS011;27656;53.068;8.818;2023-07-20T09:31:16;2.83;;;1.20;;
41966;SDS011;27656;53.068;8.818;2023-07-20T09:33:47;3.37;;;1.37;;
41966;SDS011;27656;53.068;8.818;2023-07-20T09:36:16;3.73;;;1.30;;
41966;SDS011;27656;53.068;8.818;2023-07-20T09:39:03;3.60;;;1.17;;
41966;SDS011;27656;53.068;8.818;2023-07-20T09:41:39;2.87;;;1.10;;
41966;SDS011;27656;53.068;8.818;2023-07-20T09:44:11;2.57;;;1.00;;
41966;SDS011;27656;53.068;8.818;2023-07-20T09:46:47;5.13;;;0.97;;
41966;SDS011;27656;53.068;8.818;2023-07-20T09:49:17;4.13;;;1.00;;
41966;SDS011;27656;53.068;8.818;2023-07-20T09:51:47;5.33;;;1.60;;
41966;SDS011;27656;53.068;8.818;2023-07-20T09:54:13;2.03;;;1.03;;
41966;SDS011;27656;53.068;8.818;2023-07-20T09:56:41;2.73;;;1.03;;
41966;SDS011;27656;53.068;8.818;2023-07-20T09:59:08;2.10;;;1.30;;
41966;SDS011;27656;53.068;8.818;2023-07-20T10:01:35;2.03;;;1.03;;
41966;SDS011;27656;53.068;8.818;2023-07-20T10:04:04;2.33;;;1.00;;
41966;SDS011;27656;53.068;8.818;2023-07-20T10:06:33;1.60;;;1.10;;
41966;SDS011;27656;53.068;8.818;2023-07-20T10:09:02;3.07;;;1.00;;
41966;SDS011;27656;53.068;8.818;2023-07-20T10:11:30;1.67;;;1.20;;
41966;SDS011;27656;53.068;8.818;2023-07-20T10:13:58;6.47;;;1.60;;
41966;SDS011;27656;53.068;8.818;2023-07-20T10:19:05;6.77;;;2.43;;
41966;SDS011;27656;53.068;8.818;2023-07-20T10:21:38;4.13;;;1.90;;
41966;SDS011;27656;53.068;8.818;2023-07-20T10:24:16;3.17;;;1.73;;
41966;SDS011;27656;53.068;8.818;2023-07-20T10:26:43;4.00;;;2.20;;
41966;SDS011;27656;53.068;8.818;2023-07-20T10:29:10;4.83;;;1.57;;
41966;SDS011;27656;53.068;8.818;2023-07-20T10:31:38;2.50;;;1.60;;
41966;SDS011;27656;53.068;8.818;2023-07-20T10:34:05;3.83;;;1.43;;
41966;SDS011;27656;53.068;8.818;2023-07-20T10:36:31;5.60;;;1.70;;
41966;SDS011;27656;53.068;8.818;2023-07-20T10:38:58;2.80;;;1.60;;
41966;SDS011;27656;53.068;8.818;2023-07-20T10:41:28;2.00;;;1.40;;
41966;SDS011;27656;53.068;8.818;2023-07-20T10:44:07;2.10;;;1.23;;
41966;SDS011;27656;53.068;8.818;2023-07-20T10:46:43;2.43;;;1.10;;
41966;SDS011;27656;53.068;8.818;2023-07-20T10:49:14;3.07;;;1.30;;
41966;SDS011;27656;53.068;8.818;2023-07-20T10:51:45;1.90;;;1.07;;
41966;SDS011;27656;53.068;8.818;2023-07-20T10:56:44;3.60;;;1.30;;
41966;SDS011;27656;53.068;8.818;2023-07-20T11:02:07;2.47;;;1.20;;
41966;SDS011;27656;53.068;8.818;2023-07-20T11:04:42;3.80;;;1.00;;
41966;SDS011;27656;53.068;8.818;2023-07-20T11:07:09;2.80;;;1.33;;
41966;SDS011;27656;53.068;8.818;2023-07-20T11:09:39;2.20;;;1.00;;
41966;SDS011;27656;53.068;8.818;2023-07-20T11:12:12;3.23;;;1.20;;
41966;SDS011;27656;53.068;8.818;2023-07-20T11:14:44;3.27;;;1.50;;
41966;SDS011;27656;53.068;8.818;2023-07-20T11:17:20;4.03;;;1.60;;
41966;SDS011;27656;53.068;8.818;2023-07-20T11:19:48;3.20;;;1.10;;
41966;SDS011;27656;53.068;8.818;2023-07-20T11:22:18;2.70;;;1.17;;
41966;SDS011;27656;53.068;8.818;2023-07-20T11:24:45;4.03;;;1.20;;
41966;SDS011;27656;53.068;8.818;2023-07-20T11:27:11;3.60;;;1.17;;
41966;SDS011;27656;53.068;8.818;2023-07-20T11:29:38;2.27;;;1.20;;
41966;SDS011;27656;53.068;8.818;2023-07-20T11:32:04;2.50;;;1.30;;
41966;SDS011;27656;53.068;8.818;2023-07-20T11:34:32;2.47;;;1.03;;
41966;SDS011;27656;53.068;8.818;2023-07-20T11:36:59;3.50;;;1.13;;
41966;SDS011;27656;53.068;8.818;2023-07-20T11:39:29;5.73;;;1.13;;
41966;SDS011;27656;53.068;8.818;2023-07-20T11:41:56;3.77;;;1.07;;
41966;SDS011;27656;53.068;8.818;2023-07-20T11:44:23;3.10;;;1.27;;
41966;SDS011;27656;53.068;8.818;2023-07-20T11:47:04;2.75;;;1.35;;
41966;SDS011;27656;53.068;8.818;2023-07-20T11:49:35;4.47;;;1.20;;
41966;SDS011;27656;53.068;8.818;2023-07-20T11:52:05;3.15;;;1.13;;
41966;SDS011;27656;53.068;8.818;2023-07-20T11:54:33;3.10;;;1.20;;
41966;SDS011;27656;53.068;8.818;2023-07-20T11:57:01;1.95;;;1.17;;
41966;SDS011;27656;53.068;8.818;2023-07-20T11:59:28;4.72;;;1.48;;
41966;SDS011;27656;53.068;8.818;2023-07-20T12:01:54;6.57;;;1.27;;
41966;SDS011;27656;53.068;8.818;2023-07-20T12:04:24;3.03;;;1.38;;
41966;SDS011;27656;53.068;8.818;2023-07-20T12:06:52;4.57;;;1.30;;
41966;SDS011;27656;53.068;8.818;2023-07-20T12:09:19;3.53;;;1.37;;
41966;SDS011;27656;53.068;8.818;2023-07-20T12:11:48;6.30;;;1.60;;
41966;SDS011;27656;53.068;8.818;2023-07-20T12:14:15;7.17;;;1.50;;
41966;SDS011;27656;53.068;8.818;2023-07-20T12:16:44;5.30;;;1.63;;
41966;SDS011;27656;53.068;8.818;2023-07-20T12:19:19;10.70;;;2.30;;
41966;SDS011;27656;53.068;8.818;2023-07-20T12:21:45;4.03;;;1.50;;
41966;SDS011;27656;53.068;8.818;2023-07-20T12:24:11;8.57;;;1.87;;
41966;SDS011;27656;53.068;8.818;2023-07-20T12:26:38;7.00;;;1.80;;
41966;SDS011;27656;53.068;8.818;2023-07-20T12:29:05;10.20;;;1.80;;
41966;SDS011;27656;53.068;8.818;2023-07-20T12:31:33;4.03;;;1.53;;
41966;SDS011;27656;53.068;8.818;2023-07-20T12:34:02;3.60;;;1.10;;
41966;SDS011;27656;53.068;8.818;2023-07-20T12:36:28;3.60;;;1.10;;
41966;SDS011;27656;53.068;8.818;2023-07-20T12:38:54;2.63;;;1.00;;
41966;SDS011;27656;53.068;8.818;2023-07-20T12:41:21;2.33;;;1.03;;
41966;SDS011;27656;53.068;8.818;2023-07-20T12:43:47;5.87;;;1.00;;
41966;SDS011;27656;53.068;8.818;2023-07-20T12:46:14;2.63;;;1.10;;
41966;SDS011;27656;53.068;8.818;2023-07-20T12:48:41;2.03;;;1.00;;
41966;SDS011;27656;53.068;8.818;2023-07-20T12:51:11;1.80;;;1.03;;
41966;SDS011;27656;53.068;8.818;2023-07-20T12:53:38;2.20;;;0.97;;
41966;SDS011;27656;53.068;8.818;2023-07-20T12:56:05;2.83;;;1.10;;
41966;SDS011;27656;53.068;8.818;2023-07-20T12:58:34;4.27;;;0.93;;
41966;SDS011;27656;53.068;8.818;2023-07-20T13:01:01;4.57;;;1.10;;
41966;SDS011;27656;53.068;8.818;2023-07-20T13:03:28;2.73;;;0.90;;
41966;SDS011;27656;53.068;8.818;2023-07-20T13:05:57;3.33;;;1.10;;
41966;SDS011;27656;53.068;8.818;2023-07-20T13:08:27;2.67;;;0.90;;
41966;SDS011;27656;53.068;8.818;2023-07-20T13:10:53;2.20;;;1.03;;
41966;SDS011;27656;53.068;8.818;2023-07-20T13:13:20;6.50;;;1.37;;
41966;SDS011;27656;53.068;8.818;2023-07-20T13:15:47;6.23;;;1.40;;
41966;SDS011;27656;53.068;8.818;2023-07-20T13:18:14;6.17;;;1.40;;
41966;SDS011;27656;53.068;8.818;2023-07-20T13:20:40;5.33;;;1.40;;
41966;SDS011;27656;53.068;8.818;2023-07-20T13:23:07;3.33;;;1.40;;
41966;SDS011;27656;53.068;8.818;2023-07-20T13:25:33;3.27;;;1.10;;
41966;SDS011;27656;53.068;8.818;2023-07-20T13:28:00;5.00;;;1.30;;
41966;SDS011;27656;53.068;8.818;2023-07-20T13:30:26;3.47;;;1.13;;
41966;SDS011;27656;53.068;8.818;2023-07-20T13:32:53;6.20;;;1.10;;
41966;SDS011;27656;53.068;8.818;2023-07-20T13:35:20;4.10;;;1.10;;
41966;SDS011;27656;53.068;8.818;2023-07-20T13:37:46;3.90;;;1.00;;
41966;SDS011;27656;53.068;8.818;2023-07-20T13:40:14;2.27;;;0.80;;
41966;SDS011;27656;53.068;8.818;2023-07-20T13:42:43;3.90;;;0.90;;
41966;SDS011;27656;53.068;8.818;2023-07-20T13:45:11;3.30;;;1.00;;
41966;SDS011;27656;53.068;8.818;2023-07-20T13:47:38;5.30;;;0.87;;
41966;SDS011;27656;53.068;8.818;2023-07-20T13:50:05;6.60;;;1.17;;
41966;SDS011;27656;53.068;8.818;2023-07-20T13:52:32;2.47;;;1.03;;
41966;SDS011;27656;53.068;8.818;2023-07-20T13:55:01;5.37;;;0.70;;
41966;SDS011;27656;53.068;8.818;2023-07-20T13:57:30;2.73;;;0.80;;
41966;SDS011;27656;53.068;8.818;2023-07-20T13:59:59;2.03;;;0.80;;
41966;SDS011;27656;53.068;8.818;2023-07-20T14:02:27;1.30;;;0.70;;
41966;SDS011;27656;53.068;8.818;2023-07-20T14:04:56;3.23;;;0.90;;
41966;SDS011;27656;53.068;8.818;2023-07-20T14:07:26;2.83;;;1.17;;
41966;SDS011;27656;53.068;8.818;2023-07-20T14:09:52;4.30;;;1.00;;
41966;SDS011;27656;53.068;8.818;2023-07-20T14:12:22;2.27;;;0.90;;
41966;SDS011;27656;53.068;8.818;2023-07-20T14:14:48;4.87;;;1.33;;
41966;SDS011;27656;53.068;8.818;2023-07-20T14:17:15;4.07;;;1.03;;
41966;SDS011;27656;53.068;8.818;2023-07-20T14:19:42;2.13;;;1.00;;
41966;SDS011;27656;53.068;8.818;2023-07-20T14:22:09;1.93;;;0.93;;
41966;SDS011;27656;53.068;8.818;2023-07-20T14:24:38;8.00;;;1.30;;
41966;SDS011;27656;53.068;8.818;2023-07-20T14:27:04;5.27;;;1.00;;
41966;SDS011;27656;53.068;8.818;2023-07-20T14:29:31;4.47;;;1.20;;
41966;SDS011;27656;53.068;8.818;2023-07-20T14:31:58;4.87;;;1.27;;
41966;SDS011;27656;53.068;8.818;2023-07-20T14:34:25;5.33;;;1.10;;
41966;SDS011;27656;53.068;8.818;2023-07-20T14:36:52;3.90;;;1.10;;
41966;SDS011;27656;53.068;8.818;2023-07-20T14:39:19;3.17;;;1.20;;
41966;SDS011;27656;53.068;8.818;2023-07-20T14:41:46;3.47;;;0.90;;
41966;SDS011;27656;53.068;8.818;2023-07-20T14:44:13;2.77;;;0.90;;
41966;SDS011;27656;53.068;8.818;2023-07-20T14:46:40;3.17;;;1.00;;
41966;SDS011;27656;53.068;8.818;2023-07-20T14:49:06;2.60;;;0.93;;
41966;SDS011;27656;53.068;8.818;2023-07-20T14:51:33;2.13;;;0.93;;
41966;SDS011;27656;53.068;8.818;2023-07-20T14:54:03;2.67;;;0.93;;
41966;SDS011;27656;53.068;8.818;2023-07-20T14:56:30;2.33;;;0.80;;
41966;SDS011;27656;53.068;8.818;2023-07-20T14:58:56;1.80;;;1.00;;
41966;SDS011;27656;53.068;8.818;2023-07-20T15:01:24;3.57;;;1.10;;
41966;SDS011;27656;53.068;8.818;2023-07-20T15:03:50;5.13;;;1.40;;